Aérodrome :
LOGIN :

S'inscrire | Disclaimer

   EN    FR    IT 

 










Légende :    VFR   VFR Marginal   IFR   IFR Intensif   IFR Très Intensif
Visi : 
Plafond : 
>= 8 km
>= 3000ft
5 à 8 km
1000 à 3000 ft
1500m à 5 km
500 à 1000 ft
800 à 1500m
200 à 500 ft
< 800m
< 200 ft
Symboles :   Orages  Brouillard  Fortes neiges  Fortes précipitations  Vent > 20 kt
SIGMETs :   Divers  Orages  Givrage  Turbulence  Onde Orograph.  Cendres Volcan.







- Altitude de l'aérodrome : 160 ft
- Code IATA : SRP


ENSO - Stord

DERNIER METAR :
  • 231450Z 13013KT 100V160 CAVOK 11/M00 Q1017

METARs EXPIRÉS :
  • 231420Z 14010KT CAVOK 12/M01 Q1017
  • 231350Z 13012KT CAVOK 12/M01 Q1017
  • 231320Z 16007KT 120V220 CAVOK 12/02 Q1017
  • 231250Z 16007KT 130V210 CAVOK 12/03 Q1017
  • 231220Z 15004KT 120V190 CAVOK 12/02 Q1017
  • 231150Z 15004KT 130V190 CAVOK 11/04 Q1017

TAF TAF ENSO
Valide du 23 à 15h jusqu'au 23 à 18h UTC


231400Z 2315/2318 13012KT CAVOK
Pas de NOTAMs connus pour ce terrain.



MET'MAP, la Météo Aéronautique d'un coup d'oeil ! - Copyright ORBIFLY Décembre 2007 - Disclaimer

ORBIFLY MET'MAP TEAM :

Programmation & Développement : Alexandra Zaïnal
Conception & Développement : Baudouin d'Aumeries
Co-Programmation & Développement : Marc-Olivier Méhu
Soutien technique & logistique : Manuel Goepfert

Contact : metmap@orbifly.com




SOURCES & CREDITS :

   NOAA